sensor_id;sensor_type;location;lat;lon;timestamp;P1;durP1;ratioP1;P2;durP2;ratioP2
22646;SDS011;11490;42.726;23.268;2023-06-22T00:01:54;9.73;;;6.50;;
22646;SDS011;11490;42.726;23.268;2023-06-22T00:04:20;9.25;;;6.43;;
22646;SDS011;11490;42.726;23.268;2023-06-22T00:06:45;8.80;;;5.90;;
22646;SDS011;11490;42.726;23.268;2023-06-22T00:09:10;9.43;;;6.50;;
22646;SDS011;11490;42.726;23.268;2023-06-22T00:11:36;11.15;;;6.65;;
22646;SDS011;11490;42.726;23.268;2023-06-22T00:14:02;11.40;;;6.15;;
22646;SDS011;11490;42.726;23.268;2023-06-22T00:16:28;12.00;;;6.60;;
22646;SDS011;11490;42.726;23.268;2023-06-22T00:18:54;12.90;;;7.20;;
22646;SDS011;11490;42.726;23.268;2023-06-22T00:21:19;10.15;;;7.35;;
22646;SDS011;11490;42.726;23.268;2023-06-22T00:23:45;12.38;;;7.55;;
22646;SDS011;11490;42.726;23.268;2023-06-22T00:26:12;9.73;;;6.53;;
22646;SDS011;11490;42.726;23.268;2023-06-22T00:28:38;12.63;;;7.20;;
22646;SDS011;11490;42.726;23.268;2023-06-22T00:31:03;11.25;;;7.28;;
22646;SDS011;11490;42.726;23.268;2023-06-22T00:33:29;10.70;;;7.28;;
22646;SDS011;11490;42.726;23.268;2023-06-22T00:35:54;10.93;;;7.82;;
22646;SDS011;11490;42.726;23.268;2023-06-22T00:38:20;10.90;;;6.95;;
22646;SDS011;11490;42.726;23.268;2023-06-22T00:40:45;10.55;;;7.20;;
22646;SDS011;11490;42.726;23.268;2023-06-22T00:43:11;10.13;;;7.45;;
22646;SDS011;11490;42.726;23.268;2023-06-22T00:45:36;10.88;;;6.72;;
22646;SDS011;11490;42.726;23.268;2023-06-22T00:48:02;9.73;;;6.78;;
22646;SDS011;11490;42.726;23.268;2023-06-22T00:50:34;10.10;;;7.03;;
22646;SDS011;11490;42.726;23.268;2023-06-22T00:53:04;13.82;;;7.88;;
22646;SDS011;11490;42.726;23.268;2023-06-22T00:55:37;10.73;;;6.95;;
22646;SDS011;11490;42.726;23.268;2023-06-22T00:58:08;10.60;;;7.60;;
22646;SDS011;11490;42.726;23.268;2023-06-22T01:00:35;11.18;;;7.78;;
22646;SDS011;11490;42.726;23.268;2023-06-22T01:03:02;11.68;;;7.35;;
22646;SDS011;11490;42.726;23.268;2023-06-22T01:05:28;17.08;;;7.55;;
22646;SDS011;11490;42.726;23.268;2023-06-22T01:15:49;13.80;;;6.82;;
22646;SDS011;11490;42.726;23.268;2023-06-22T01:18:21;9.30;;;7.43;;
22646;SDS011;11490;42.726;23.268;2023-06-22T01:20:51;9.65;;;7.15;;
22646;SDS011;11490;42.726;23.268;2023-06-22T01:26:11;9.40;;;6.93;;
22646;SDS011;11490;42.726;23.268;2023-06-22T01:31:12;12.27;;;7.63;;
22646;SDS011;11490;42.726;23.268;2023-06-22T01:33:42;11.25;;;7.72;;
22646;SDS011;11490;42.726;23.268;2023-06-22T01:36:08;11.07;;;7.68;;
22646;SDS011;11490;42.726;23.268;2023-06-22T01:38:35;10.93;;;7.15;;
22646;SDS011;11490;42.726;23.268;2023-06-22T01:41:02;10.35;;;7.22;;
22646;SDS011;11490;42.726;23.268;2023-06-22T01:43:28;10.23;;;7.88;;
22646;SDS011;11490;42.726;23.268;2023-06-22T01:45:55;13.43;;;7.18;;
22646;SDS011;11490;42.726;23.268;2023-06-22T01:48:22;12.60;;;7.82;;
22646;SDS011;11490;42.726;23.268;2023-06-22T01:50:48;12.38;;;7.72;;
22646;SDS011;11490;42.726;23.268;2023-06-22T01:53:14;14.38;;;7.65;;
22646;SDS011;11490;42.726;23.268;2023-06-22T01:55:39;12.30;;;7.63;;
22646;SDS011;11490;42.726;23.268;2023-06-22T01:58:04;10.48;;;7.50;;
22646;SDS011;11490;42.726;23.268;2023-06-22T02:00:34;10.30;;;7.32;;
22646;SDS011;11490;42.726;23.268;2023-06-22T02:05:50;10.07;;;7.50;;
22646;SDS011;11490;42.726;23.268;2023-06-22T02:08:20;15.20;;;7.57;;
22646;SDS011;11490;42.726;23.268;2023-06-22T02:10:49;9.55;;;7.18;;
22646;SDS011;11490;42.726;23.268;2023-06-22T02:13:17;13.77;;;7.72;;
22646;SDS011;11490;42.726;23.268;2023-06-22T02:15:44;10.73;;;7.53;;
22646;SDS011;11490;42.726;23.268;2023-06-22T02:18:11;10.85;;;7.78;;
22646;SDS011;11490;42.726;23.268;2023-06-22T02:20:37;11.48;;;7.15;;
22646;SDS011;11490;42.726;23.268;2023-06-22T02:23:03;9.65;;;6.82;;
22646;SDS011;11490;42.726;23.268;2023-06-22T02:25:30;12.30;;;7.45;;
22646;SDS011;11490;42.726;23.268;2023-06-22T02:27:56;9.30;;;6.20;;
22646;SDS011;11490;42.726;23.268;2023-06-22T02:30:21;14.20;;;7.22;;
22646;SDS011;11490;42.726;23.268;2023-06-22T02:32:47;12.77;;;7.65;;
22646;SDS011;11490;42.726;23.268;2023-06-22T02:35:12;14.32;;;7.07;;
22646;SDS011;11490;42.726;23.268;2023-06-22T02:37:38;12.35;;;7.47;;
22646;SDS011;11490;42.726;23.268;2023-06-22T02:40:06;12.98;;;7.53;;
22646;SDS011;11490;42.726;23.268;2023-06-22T02:42:39;10.73;;;7.45;;
22646;SDS011;11490;42.726;23.268;2023-06-22T02:45:04;11.57;;;6.65;;
22646;SDS011;11490;42.726;23.268;2023-06-22T02:47:30;11.93;;;7.07;;
22646;SDS011;11490;42.726;23.268;2023-06-22T02:49:56;9.88;;;6.70;;
22646;SDS011;11490;42.726;23.268;2023-06-22T02:52:21;9.25;;;7.35;;
22646;SDS011;11490;42.726;23.268;2023-06-22T02:54:46;12.18;;;7.93;;
22646;SDS011;11490;42.726;23.268;2023-06-22T02:57:12;10.95;;;7.63;;
22646;SDS011;11490;42.726;23.268;2023-06-22T02:59:38;13.82;;;7.80;;
22646;SDS011;11490;42.726;23.268;2023-06-22T03:02:05;12.05;;;7.05;;
22646;SDS011;11490;42.726;23.268;2023-06-22T03:04:31;9.60;;;6.70;;
22646;SDS011;11490;42.726;23.268;2023-06-22T03:06:57;11.52;;;7.57;;
22646;SDS011;11490;42.726;23.268;2023-06-22T03:09:26;9.00;;;6.60;;
22646;SDS011;11490;42.726;23.268;2023-06-22T03:11:52;12.00;;;7.38;;
22646;SDS011;11490;42.726;23.268;2023-06-22T03:14:18;11.75;;;7.70;;
22646;SDS011;11490;42.726;23.268;2023-06-22T03:16:44;10.35;;;6.55;;
22646;SDS011;11490;42.726;23.268;2023-06-22T03:19:09;11.13;;;6.82;;
22646;SDS011;11490;42.726;23.268;2023-06-22T03:21:35;10.57;;;6.72;;
22646;SDS011;11490;42.726;23.268;2023-06-22T03:24:02;9.15;;;6.60;;
22646;SDS011;11490;42.726;23.268;2023-06-22T03:26:27;12.07;;;6.63;;
22646;SDS011;11490;42.726;23.268;2023-06-22T03:28:54;12.18;;;7.03;;
22646;SDS011;11490;42.726;23.268;2023-06-22T03:31:19;20.10;;;11.23;;
22646;SDS011;11490;42.726;23.268;2023-06-22T03:33:47;15.30;;;9.52;;
22646;SDS011;11490;42.726;23.268;2023-06-22T03:36:14;14.38;;;8.60;;
22646;SDS011;11490;42.726;23.268;2023-06-22T03:38:43;23.77;;;11.98;;
22646;SDS011;11490;42.726;23.268;2023-06-22T03:41:08;15.43;;;10.05;;
22646;SDS011;11490;42.726;23.268;2023-06-22T03:43:33;27.58;;;14.57;;
22646;SDS011;11490;42.726;23.268;2023-06-22T03:45:59;19.38;;;10.93;;
22646;SDS011;11490;42.726;23.268;2023-06-22T03:48:24;28.73;;;17.40;;
22646;SDS011;11490;42.726;23.268;2023-06-22T03:50:50;29.52;;;19.42;;
22646;SDS011;11490;42.726;23.268;2023-06-22T03:53:15;21.42;;;14.45;;
22646;SDS011;11490;42.726;23.268;2023-06-22T03:55:47;15.05;;;10.57;;
22646;SDS011;11490;42.726;23.268;2023-06-22T03:58:14;22.65;;;13.60;;
22646;SDS011;11490;42.726;23.268;2023-06-22T04:00:40;24.48;;;15.27;;
22646;SDS011;11490;42.726;23.268;2023-06-22T04:03:05;13.30;;;8.25;;
22646;SDS011;11490;42.726;23.268;2023-06-22T04:05:32;11.38;;;7.60;;
22646;SDS011;11490;42.726;23.268;2023-06-22T04:07:58;10.55;;;7.22;;
22646;SDS011;11490;42.726;23.268;2023-06-22T04:10:23;12.23;;;7.70;;
22646;SDS011;11490;42.726;23.268;2023-06-22T04:12:48;10.23;;;6.93;;
22646;SDS011;11490;42.726;23.268;2023-06-22T04:15:14;10.30;;;7.63;;
22646;SDS011;11490;42.726;23.268;2023-06-22T04:17:39;12.95;;;8.00;;
22646;SDS011;11490;42.726;23.268;2023-06-22T04:20:05;10.93;;;7.50;;
22646;SDS011;11490;42.726;23.268;2023-06-22T04:22:31;15.50;;;8.02;;
22646;SDS011;11490;42.726;23.268;2023-06-22T04:24:57;11.82;;;7.72;;
22646;SDS011;11490;42.726;23.268;2023-06-22T04:27:22;11.50;;;7.63;;
22646;SDS011;11490;42.726;23.268;2023-06-22T04:29:48;16.60;;;7.25;;
22646;SDS011;11490;42.726;23.268;2023-06-22T04:32:17;17.20;;;7.85;;
22646;SDS011;11490;42.726;23.268;2023-06-22T04:34:43;10.73;;;6.80;;
22646;SDS011;11490;42.726;23.268;2023-06-22T04:37:09;9.85;;;7.53;;
22646;SDS011;11490;42.726;23.268;2023-06-22T04:39:34;12.52;;;7.97;;
22646;SDS011;11490;42.726;23.268;2023-06-22T04:42:00;11.90;;;7.45;;
22646;SDS011;11490;42.726;23.268;2023-06-22T04:44:26;10.90;;;7.80;;
22646;SDS011;11490;42.726;23.268;2023-06-22T04:46:56;13.77;;;8.23;;
22646;SDS011;11490;42.726;23.268;2023-06-22T04:49:25;13.73;;;9.13;;
22646;SDS011;11490;42.726;23.268;2023-06-22T04:52:01;11.85;;;7.57;;
22646;SDS011;11490;42.726;23.268;2023-06-22T04:54:28;10.60;;;7.38;;
22646;SDS011;11490;42.726;23.268;2023-06-22T04:56:54;11.93;;;7.68;;
22646;SDS011;11490;42.726;23.268;2023-06-22T04:59:26;12.80;;;8.00;;
22646;SDS011;11490;42.726;23.268;2023-06-22T05:01:55;9.88;;;6.80;;
22646;SDS011;11490;42.726;23.268;2023-06-22T05:04:23;14.98;;;9.00;;
22646;SDS011;11490;42.726;23.268;2023-06-22T05:06:53;11.10;;;8.43;;
22646;SDS011;11490;42.726;23.268;2023-06-22T05:09:19;13.15;;;8.18;;
22646;SDS011;11490;42.726;23.268;2023-06-22T05:11:44;10.93;;;7.03;;
22646;SDS011;11490;42.726;23.268;2023-06-22T05:14:11;13.95;;;8.18;;
22646;SDS011;11490;42.726;23.268;2023-06-22T05:16:36;12.73;;;7.60;;
22646;SDS011;11490;42.726;23.268;2023-06-22T05:19:02;12.20;;;6.72;;
22646;SDS011;11490;42.726;23.268;2023-06-22T05:21:29;12.60;;;7.10;;
22646;SDS011;11490;42.726;23.268;2023-06-22T05:23:55;11.38;;;7.15;;
22646;SDS011;11490;42.726;23.268;2023-06-22T05:26:24;12.88;;;7.80;;
22646;SDS011;11490;42.726;23.268;2023-06-22T05:28:51;11.63;;;7.40;;
22646;SDS011;11490;42.726;23.268;2023-06-22T05:31:16;13.65;;;7.63;;
22646;SDS011;11490;42.726;23.268;2023-06-22T05:33:42;11.43;;;7.28;;
22646;SDS011;11490;42.726;23.268;2023-06-22T05:36:09;11.13;;;7.22;;
22646;SDS011;11490;42.726;23.268;2023-06-22T05:38:35;10.93;;;6.82;;
22646;SDS011;11490;42.726;23.268;2023-06-22T05:41:01;19.60;;;9.35;;
22646;SDS011;11490;42.726;23.268;2023-06-22T05:43:27;13.25;;;6.97;;
22646;SDS011;11490;42.726;23.268;2023-06-22T05:45:52;12.10;;;8.52;;
22646;SDS011;11490;42.726;23.268;2023-06-22T05:48:18;10.35;;;7.75;;
22646;SDS011;11490;42.726;23.268;2023-06-22T05:50:43;12.88;;;7.68;;
22646;SDS011;11490;42.726;23.268;2023-06-22T05:53:08;11.18;;;7.72;;
22646;SDS011;11490;42.726;23.268;2023-06-22T05:55:34;14.98;;;6.97;;
22646;SDS011;11490;42.726;23.268;2023-06-22T05:58:00;11.45;;;8.38;;
22646;SDS011;11490;42.726;23.268;2023-06-22T06:00:26;13.80;;;9.48;;
22646;SDS011;11490;42.726;23.268;2023-06-22T06:02:51;14.55;;;9.88;;
22646;SDS011;11490;42.726;23.268;2023-06-22T06:05:17;16.00;;;8.82;;
22646;SDS011;11490;42.726;23.268;2023-06-22T06:07:43;13.85;;;9.43;;
22646;SDS011;11490;42.726;23.268;2023-06-22T06:10:10;19.20;;;9.00;;
22646;SDS011;11490;42.726;23.268;2023-06-22T06:12:35;12.77;;;9.00;;
22646;SDS011;11490;42.726;23.268;2023-06-22T06:15:01;14.10;;;8.65;;
22646;SDS011;11490;42.726;23.268;2023-06-22T06:17:27;17.90;;;8.90;;
22646;SDS011;11490;42.726;23.268;2023-06-22T06:19:52;26.95;;;9.05;;
22646;SDS011;11490;42.726;23.268;2023-06-22T06:22:18;10.90;;;6.95;;
22646;SDS011;11490;42.726;23.268;2023-06-22T06:24:44;13.15;;;7.50;;
22646;SDS011;11490;42.726;23.268;2023-06-22T06:27:10;15.93;;;8.45;;
22646;SDS011;11490;42.726;23.268;2023-06-22T06:29:36;11.43;;;7.50;;
22646;SDS011;11490;42.726;23.268;2023-06-22T06:32:01;10.65;;;7.82;;
22646;SDS011;11490;42.726;23.268;2023-06-22T06:34:27;12.30;;;8.13;;
22646;SDS011;11490;42.726;23.268;2023-06-22T06:36:52;14.60;;;7.75;;
22646;SDS011;11490;42.726;23.268;2023-06-22T06:39:18;12.13;;;7.90;;
22646;SDS011;11490;42.726;23.268;2023-06-22T06:41:43;11.18;;;7.13;;
22646;SDS011;11490;42.726;23.268;2023-06-22T06:44:09;11.70;;;7.95;;
22646;SDS011;11490;42.726;23.268;2023-06-22T06:46:34;12.35;;;7.82;;
22646;SDS011;11490;42.726;23.268;2023-06-22T06:49:00;16.02;;;8.38;;
22646;SDS011;11490;42.726;23.268;2023-06-22T06:51:25;11.00;;;7.70;;
22646;SDS011;11490;42.726;23.268;2023-06-22T06:53:50;12.73;;;7.30;;
22646;SDS011;11490;42.726;23.268;2023-06-22T06:56:16;11.52;;;7.90;;
22646;SDS011;11490;42.726;23.268;2023-06-22T06:58:41;15.05;;;7.88;;
22646;SDS011;11490;42.726;23.268;2023-06-22T07:01:07;11.75;;;7.75;;
22646;SDS011;11490;42.726;23.268;2023-06-22T07:03:33;15.73;;;8.38;;
22646;SDS011;11490;42.726;23.268;2023-06-22T07:05:59;11.55;;;8.38;;
22646;SDS011;11490;42.726;23.268;2023-06-22T07:08:24;10.80;;;7.35;;
22646;SDS011;11490;42.726;23.268;2023-06-22T07:10:50;10.77;;;7.22;;
22646;SDS011;11490;42.726;23.268;2023-06-22T07:13:17;10.65;;;7.25;;
22646;SDS011;11490;42.726;23.268;2023-06-22T07:15:42;10.52;;;7.65;;
22646;SDS011;11490;42.726;23.268;2023-06-22T07:18:07;11.68;;;7.75;;
22646;SDS011;11490;42.726;23.268;2023-06-22T07:20:33;11.38;;;7.57;;
22646;SDS011;11490;42.726;23.268;2023-06-22T07:22:58;10.40;;;7.88;;
22646;SDS011;11490;42.726;23.268;2023-06-22T07:25:24;12.68;;;7.88;;
22646;SDS011;11490;42.726;23.268;2023-06-22T07:27:59;10.40;;;7.47;;
22646;SDS011;11490;42.726;23.268;2023-06-22T07:30:27;10.88;;;7.45;;
22646;SDS011;11490;42.726;23.268;2023-06-22T07:32:52;10.63;;;7.07;;
22646;SDS011;11490;42.726;23.268;2023-06-22T07:35:18;10.40;;;7.30;;
22646;SDS011;11490;42.726;23.268;2023-06-22T07:37:44;15.25;;;7.35;;
22646;SDS011;11490;42.726;23.268;2023-06-22T07:40:09;10.40;;;6.75;;
22646;SDS011;11490;42.726;23.268;2023-06-22T07:42:35;9.98;;;6.93;;
22646;SDS011;11490;42.726;23.268;2023-06-22T07:45:02;9.48;;;6.20;;
22646;SDS011;11490;42.726;23.268;2023-06-22T07:47:28;10.27;;;6.90;;
22646;SDS011;11490;42.726;23.268;2023-06-22T07:49:54;10.30;;;6.93;;
22646;SDS011;11490;42.726;23.268;2023-06-22T07:52:22;19.55;;;10.18;;
22646;SDS011;11490;42.726;23.268;2023-06-22T07:54:48;9.18;;;6.72;;
22646;SDS011;11490;42.726;23.268;2023-06-22T07:57:13;9.20;;;6.65;;
22646;SDS011;11490;42.726;23.268;2023-06-22T07:59:39;7.13;;;5.78;;
22646;SDS011;11490;42.726;23.268;2023-06-22T08:02:04;11.13;;;6.40;;
22646;SDS011;11490;42.726;23.268;2023-06-22T08:04:30;8.43;;;6.78;;
22646;SDS011;11490;42.726;23.268;2023-06-22T08:06:56;11.02;;;6.97;;
22646;SDS011;11490;42.726;23.268;2023-06-22T08:09:22;11.15;;;7.47;;
22646;SDS011;11490;42.726;23.268;2023-06-22T08:11:47;10.35;;;6.70;;
22646;SDS011;11490;42.726;23.268;2023-06-22T08:14:14;11.18;;;7.80;;
22646;SDS011;11490;42.726;23.268;2023-06-22T08:16:40;18.58;;;7.80;;
22646;SDS011;11490;42.726;23.268;2023-06-22T08:19:06;13.25;;;8.48;;
22646;SDS011;11490;42.726;23.268;2023-06-22T08:21:32;11.18;;;7.45;;
22646;SDS011;11490;42.726;23.268;2023-06-22T08:23:57;11.32;;;8.30;;
22646;SDS011;11490;42.726;23.268;2023-06-22T08:26:23;13.48;;;8.20;;
22646;SDS011;11490;42.726;23.268;2023-06-22T08:28:48;14.05;;;7.50;;
22646;SDS011;11490;42.726;23.268;2023-06-22T08:31:14;11.02;;;7.13;;
22646;SDS011;11490;42.726;23.268;2023-06-22T08:33:39;10.35;;;6.70;;
22646;SDS011;11490;42.726;23.268;2023-06-22T08:36:05;11.52;;;7.75;;
22646;SDS011;11490;42.726;23.268;2023-06-22T08:38:31;8.90;;;6.40;;
22646;SDS011;11490;42.726;23.268;2023-06-22T08:40:57;10.35;;;7.25;;
22646;SDS011;11490;42.726;23.268;2023-06-22T08:43:22;8.05;;;5.93;;
22646;SDS011;11490;42.726;23.268;2023-06-22T08:45:48;10.13;;;7.03;;
22646;SDS011;11490;42.726;23.268;2023-06-22T08:48:13;10.15;;;6.47;;
22646;SDS011;11490;42.726;23.268;2023-06-22T08:50:39;10.48;;;5.22;;
22646;SDS011;11490;42.726;23.268;2023-06-22T08:53:05;9.10;;;5.88;;
22646;SDS011;11490;42.726;23.268;2023-06-22T08:55:31;9.80;;;6.32;;
22646;SDS011;11490;42.726;23.268;2023-06-22T08:57:56;12.25;;;6.18;;
22646;SDS011;11490;42.726;23.268;2023-06-22T09:00:22;7.32;;;4.90;;
22646;SDS011;11490;42.726;23.268;2023-06-22T09:02:47;7.53;;;5.72;;
22646;SDS011;11490;42.726;23.268;2023-06-22T09:05:13;7.65;;;6.35;;
22646;SDS011;11490;42.726;23.268;2023-06-22T09:07:39;9.65;;;5.88;;
22646;SDS011;11490;42.726;23.268;2023-06-22T09:10:05;7.78;;;5.25;;
22646;SDS011;11490;42.726;23.268;2023-06-22T09:12:31;8.95;;;5.93;;
22646;SDS011;11490;42.726;23.268;2023-06-22T09:14:58;7.10;;;4.90;;
22646;SDS011;11490;42.726;23.268;2023-06-22T09:17:28;8.40;;;5.50;;
22646;SDS011;11490;42.726;23.268;2023-06-22T09:19:53;7.50;;;5.15;;
22646;SDS011;11490;42.726;23.268;2023-06-22T09:22:19;9.43;;;5.70;;
22646;SDS011;11490;42.726;23.268;2023-06-22T09:24:45;8.70;;;5.70;;
22646;SDS011;11490;42.726;23.268;2023-06-22T09:27:13;7.38;;;5.22;;
22646;SDS011;11490;42.726;23.268;2023-06-22T09:29:39;7.22;;;5.30;;
22646;SDS011;11490;42.726;23.268;2023-06-22T09:32:04;10.15;;;5.45;;
22646;SDS011;11490;42.726;23.268;2023-06-22T09:34:30;7.50;;;5.20;;
22646;SDS011;11490;42.726;23.268;2023-06-22T09:36:56;7.60;;;5.57;;
22646;SDS011;11490;42.726;23.268;2023-06-22T09:39:22;8.48;;;5.53;;
22646;SDS011;11490;42.726;23.268;2023-06-22T09:41:47;7.22;;;5.18;;
22646;SDS011;11490;42.726;23.268;2023-06-22T09:44:13;7.72;;;5.20;;
22646;SDS011;11490;42.726;23.268;2023-06-22T09:46:38;9.82;;;5.10;;
22646;SDS011;11490;42.726;23.268;2023-06-22T09:49:04;8.40;;;4.88;;
22646;SDS011;11490;42.726;23.268;2023-06-22T09:51:29;7.43;;;4.80;;
22646;SDS011;11490;42.726;23.268;2023-06-22T09:53:54;8.02;;;5.47;;
22646;SDS011;11490;42.726;23.268;2023-06-22T09:56:20;9.18;;;5.57;;
22646;SDS011;11490;42.726;23.268;2023-06-22T09:58:46;7.50;;;5.00;;
22646;SDS011;11490;42.726;23.268;2023-06-22T10:01:17;8.38;;;5.55;;
22646;SDS011;11490;42.726;23.268;2023-06-22T10:03:43;15.23;;;5.45;;
22646;SDS011;11490;42.726;23.268;2023-06-22T10:06:08;7.78;;;5.15;;
22646;SDS011;11490;42.726;23.268;2023-06-22T10:08:34;8.40;;;4.72;;
22646;SDS011;11490;42.726;23.268;2023-06-22T10:11:00;7.75;;;5.53;;
22646;SDS011;11490;42.726;23.268;2023-06-22T10:13:26;7.45;;;4.90;;
22646;SDS011;11490;42.726;23.268;2023-06-22T10:15:51;7.97;;;5.85;;
22646;SDS011;11490;42.726;23.268;2023-06-22T10:18:20;8.02;;;5.55;;
22646;SDS011;11490;42.726;23.268;2023-06-22T10:20:49;7.57;;;5.25;;
22646;SDS011;11490;42.726;23.268;2023-06-22T10:23:16;7.40;;;5.13;;
22646;SDS011;11490;42.726;23.268;2023-06-22T10:25:42;9.48;;;6.13;;
22646;SDS011;11490;42.726;23.268;2023-06-22T10:28:07;8.10;;;5.70;;
22646;SDS011;11490;42.726;23.268;2023-06-22T10:30:33;8.30;;;5.20;;
22646;SDS011;11490;42.726;23.268;2023-06-22T10:32:58;9.38;;;5.55;;
22646;SDS011;11490;42.726;23.268;2023-06-22T10:35:24;6.55;;;4.70;;
22646;SDS011;11490;42.726;23.268;2023-06-22T10:37:49;8.57;;;5.15;;
22646;SDS011;11490;42.726;23.268;2023-06-22T10:40:16;7.32;;;5.13;;
22646;SDS011;11490;42.726;23.268;2023-06-22T10:42:42;9.57;;;5.10;;
22646;SDS011;11490;42.726;23.268;2023-06-22T10:45:07;9.13;;;4.90;;
22646;SDS011;11490;42.726;23.268;2023-06-22T10:47:34;9.60;;;5.82;;
22646;SDS011;11490;42.726;23.268;2023-06-22T10:50:00;9.07;;;5.43;;
22646;SDS011;11490;42.726;23.268;2023-06-22T10:52:26;9.52;;;6.90;;
22646;SDS011;11490;42.726;23.268;2023-06-22T10:54:51;10.93;;;5.75;;
22646;SDS011;11490;42.726;23.268;2023-06-22T10:57:17;8.40;;;5.07;;
22646;SDS011;11490;42.726;23.268;2023-06-22T10:59:43;6.80;;;5.20;;
22646;SDS011;11490;42.726;23.268;2023-06-22T11:02:08;6.78;;;4.80;;
22646;SDS011;11490;42.726;23.268;2023-06-22T11:04:33;7.18;;;5.15;;
22646;SDS011;11490;42.726;23.268;2023-06-22T11:06:59;7.32;;;5.28;;
22646;SDS011;11490;42.726;23.268;2023-06-22T11:09:24;8.05;;;5.60;;
22646;SDS011;11490;42.726;23.268;2023-06-22T11:11:50;6.53;;;4.60;;
22646;SDS011;11490;42.726;23.268;2023-06-22T11:14:19;8.50;;;5.85;;
22646;SDS011;11490;42.726;23.268;2023-06-22T11:16:45;6.75;;;4.90;;
22646;SDS011;11490;42.726;23.268;2023-06-22T11:19:14;7.60;;;5.40;;
22646;SDS011;11490;42.726;23.268;2023-06-22T11:21:40;7.25;;;5.68;;
22646;SDS011;11490;42.726;23.268;2023-06-22T11:24:05;7.22;;;5.55;;
22646;SDS011;11490;42.726;23.268;2023-06-22T11:26:31;9.60;;;6.15;;
22646;SDS011;11490;42.726;23.268;2023-06-22T11:28:57;7.50;;;5.53;;
22646;SDS011;11490;42.726;23.268;2023-06-22T11:31:23;9.52;;;6.10;;
22646;SDS011;11490;42.726;23.268;2023-06-22T11:33:49;6.90;;;5.70;;
22646;SDS011;11490;42.726;23.268;2023-06-22T11:36:14;9.80;;;5.38;;
22646;SDS011;11490;42.726;23.268;2023-06-22T11:38:40;8.82;;;5.68;;
22646;SDS011;11490;42.726;23.268;2023-06-22T11:41:06;11.48;;;4.97;;
22646;SDS011;11490;42.726;23.268;2023-06-22T11:43:32;16.45;;;6.35;;
22646;SDS011;11490;42.726;23.268;2023-06-22T11:45:58;9.32;;;6.50;;
22646;SDS011;11490;42.726;23.268;2023-06-22T11:48:24;8.18;;;6.40;;
22646;SDS011;11490;42.726;23.268;2023-06-22T11:50:50;9.40;;;6.55;;
22646;SDS011;11490;42.726;23.268;2023-06-22T11:53:15;10.93;;;6.82;;
22646;SDS011;11490;42.726;23.268;2023-06-22T11:55:42;12.20;;;8.00;;
22646;SDS011;11490;42.726;23.268;2023-06-22T11:58:08;8.50;;;6.32;;
22646;SDS011;11490;42.726;23.268;2023-06-22T12:00:33;8.63;;;6.38;;
22646;SDS011;11490;42.726;23.268;2023-06-22T12:02:59;10.02;;;6.93;;
22646;SDS011;11490;42.726;23.268;2023-06-22T12:05:24;9.23;;;6.40;;
22646;SDS011;11490;42.726;23.268;2023-06-22T12:07:50;17.52;;;7.65;;
22646;SDS011;11490;42.726;23.268;2023-06-22T12:10:18;9.70;;;6.53;;
22646;SDS011;11490;42.726;23.268;2023-06-22T12:12:44;8.50;;;6.45;;
22646;SDS011;11490;42.726;23.268;2023-06-22T12:15:09;10.57;;;6.55;;
22646;SDS011;11490;42.726;23.268;2023-06-22T12:17:35;11.23;;;7.10;;
22646;SDS011;11490;42.726;23.268;2023-06-22T12:20:01;12.25;;;7.85;;
22646;SDS011;11490;42.726;23.268;2023-06-22T12:22:28;12.45;;;7.45;;
22646;SDS011;11490;42.726;23.268;2023-06-22T12:24:53;15.13;;;7.57;;
22646;SDS011;11490;42.726;23.268;2023-06-22T12:27:19;14.73;;;7.57;;
22646;SDS011;11490;42.726;23.268;2023-06-22T12:29:47;11.95;;;7.03;;
22646;SDS011;11490;42.726;23.268;2023-06-22T12:32:13;8.55;;;4.97;;
22646;SDS011;11490;42.726;23.268;2023-06-22T12:34:38;13.57;;;5.18;;
22646;SDS011;11490;42.726;23.268;2023-06-22T12:37:04;7.35;;;4.63;;
22646;SDS011;11490;42.726;23.268;2023-06-22T12:39:31;10.00;;;4.30;;
22646;SDS011;11490;42.726;23.268;2023-06-22T12:41:57;8.38;;;5.35;;
22646;SDS011;11490;42.726;23.268;2023-06-22T12:44:22;9.75;;;5.18;;
22646;SDS011;11490;42.726;23.268;2023-06-22T12:46:48;6.38;;;3.78;;
22646;SDS011;11490;42.726;23.268;2023-06-22T12:49:13;6.88;;;3.85;;
22646;SDS011;11490;42.726;23.268;2023-06-22T12:51:39;8.93;;;5.15;;
22646;SDS011;11490;42.726;23.268;2023-06-22T12:54:06;7.70;;;3.92;;
22646;SDS011;11490;42.726;23.268;2023-06-22T12:56:31;7.93;;;3.92;;
22646;SDS011;11490;42.726;23.268;2023-06-22T12:58:57;8.63;;;3.60;;
22646;SDS011;11490;42.726;23.268;2023-06-22T13:01:23;8.35;;;4.28;;
22646;SDS011;11490;42.726;23.268;2023-06-22T13:03:49;14.25;;;4.75;;
22646;SDS011;11490;42.726;23.268;2023-06-22T13:06:14;7.63;;;4.35;;
22646;SDS011;11490;42.726;23.268;2023-06-22T13:08:39;7.68;;;4.25;;
22646;SDS011;11490;42.726;23.268;2023-06-22T13:11:05;6.15;;;4.18;;
22646;SDS011;11490;42.726;23.268;2023-06-22T13:13:31;5.63;;;3.90;;
22646;SDS011;11490;42.726;23.268;2023-06-22T13:15:56;6.25;;;3.78;;
22646;SDS011;11490;42.726;23.268;2023-06-22T13:18:22;7.47;;;4.68;;
22646;SDS011;11490;42.726;23.268;2023-06-22T13:20:47;7.80;;;4.72;;
22646;SDS011;11490;42.726;23.268;2023-06-22T13:23:12;7.18;;;4.82;;
22646;SDS011;11490;42.726;23.268;2023-06-22T13:25:38;10.43;;;5.07;;
22646;SDS011;11490;42.726;23.268;2023-06-22T13:28:04;8.23;;;4.90;;
22646;SDS011;11490;42.726;23.268;2023-06-22T13:30:29;8.52;;;5.03;;
22646;SDS011;11490;42.726;23.268;2023-06-22T13:32:56;9.55;;;5.13;;
22646;SDS011;11490;42.726;23.268;2023-06-22T13:35:22;11.02;;;5.50;;
22646;SDS011;11490;42.726;23.268;2023-06-22T13:37:47;9.98;;;5.53;;
22646;SDS011;11490;42.726;23.268;2023-06-22T13:40:13;15.35;;;5.50;;
22646;SDS011;11490;42.726;23.268;2023-06-22T13:42:39;9.60;;;4.90;;
22646;SDS011;11490;42.726;23.268;2023-06-22T13:45:05;9.38;;;5.53;;
22646;SDS011;11490;42.726;23.268;2023-06-22T13:47:31;8.75;;;5.43;;
22646;SDS011;11490;42.726;23.268;2023-06-22T13:49:57;11.27;;;6.80;;
22646;SDS011;11490;42.726;23.268;2023-06-22T13:52:23;9.43;;;5.90;;
22646;SDS011;11490;42.726;23.268;2023-06-22T13:54:51;9.10;;;5.40;;
22646;SDS011;11490;42.726;23.268;2023-06-22T13:57:16;10.90;;;5.97;;
22646;SDS011;11490;42.726;23.268;2023-06-22T13:59:42;9.98;;;6.13;;
22646;SDS011;11490;42.726;23.268;2023-06-22T14:02:07;9.55;;;5.95;;
22646;SDS011;11490;42.726;23.268;2023-06-22T14:04:33;10.45;;;5.72;;
22646;SDS011;11490;42.726;23.268;2023-06-22T14:06:58;10.48;;;6.35;;
22646;SDS011;11490;42.726;23.268;2023-06-22T14:09:24;12.07;;;6.88;;
22646;SDS011;11490;42.726;23.268;2023-06-22T14:11:50;15.50;;;8.10;;
22646;SDS011;11490;42.726;23.268;2023-06-22T14:14:15;11.90;;;6.75;;
22646;SDS011;11490;42.726;23.268;2023-06-22T14:16:41;8.40;;;6.32;;
22646;SDS011;11490;42.726;23.268;2023-06-22T14:19:06;8.77;;;6.07;;
22646;SDS011;11490;42.726;23.268;2023-06-22T14:21:31;12.23;;;6.25;;
22646;SDS011;11490;42.726;23.268;2023-06-22T14:23:57;12.13;;;6.63;;
22646;SDS011;11490;42.726;23.268;2023-06-22T14:26:22;11.32;;;6.45;;
22646;SDS011;11490;42.726;23.268;2023-06-22T14:28:48;10.43;;;6.43;;
22646;SDS011;11490;42.726;23.268;2023-06-22T14:31:15;9.00;;;6.28;;
22646;SDS011;11490;42.726;23.268;2023-06-22T14:33:45;10.77;;;6.80;;
22646;SDS011;11490;42.726;23.268;2023-06-22T14:36:17;9.30;;;6.00;;